Time;durP1;ratioP1;P1;durP2;ratioP2;P2;SDS_P1;SDS_P2;PMS_P1;PMS_P2;Temp;Humidity;BMP_temperature;BMP_pressure;BME280_temperature;BME280_humidity;BME280_pressure;Samples;Min_cycle;Max_cycle;Signal;HPM_P1;HPM_P2
2023/01/23 00:01:07;;;;;;;0.40;0.40;;;;;;;13.97;25.10;101932.56;5013327;28;20033;-57
2023/01/23 00:03:33;;;;;;;0.88;0.40;;;;;;;13.82;25.34;101927.31;5013291;28;20030;-57
2023/01/23 00:06:03;;;;;;;1.48;0.50;;;;;;;13.82;25.62;101937.25;5013141;28;20025;-56
2023/01/23 00:08:29;;;;;;;0.57;0.40;;;;;;;13.76;26.87;101938.06;5012610;28;20028;-56
2023/01/23 00:10:56;;;;;;;0.47;0.40;;;;;;;13.72;26.81;101937.66;5013108;28;20080;-56
2023/01/23 00:13:23;;;;;;;1.67;0.30;;;;;;;13.62;27.26;101938.00;5012805;28;20068;-53
2023/01/23 00:15:50;;;;;;;0.63;0.20;;;;;;;13.66;27.46;101930.38;5013063;28;20088;-55
2023/01/23 00:18:16;;;;;;;1.55;0.20;;;;;;;13.61;26.94;101930.16;5012634;28;20014;-55
2023/01/23 00:20:43;;;;;;;0.25;0.10;;;;;;;13.49;27.43;101935.22;5012594;28;20124;-54
2023/01/23 00:23:11;;;;;;;0.65;0.22;;;;;;;13.35;28.31;101939.72;5012744;28;20034;-53
2023/01/23 00:25:37;;;;;;;0.38;0.20;;;;;;;13.38;29.24;101928.56;5012868;28;20473;-54
2023/01/23 00:28:04;;;;;;;0.55;0.20;;;;;;;13.18;29.30;101930.28;5012656;28;20096;-56
2023/01/23 00:30:30;;;;;;;1.10;0.40;;;;;;;13.26;28.31;101934.69;5012620;28;20373;-57
2023/01/23 00:32:56;;;;;;;0.45;0.15;;;;;;;13.25;28.62;101925.78;5012144;28;20503;-56
2023/01/23 00:35:23;;;;;;;0.50;0.20;;;;;;;13.15;28.10;101917.22;5012989;28;20120;-56
2023/01/23 00:37:49;;;;;;;0.20;0.17;;;;;;;13.17;27.13;101917.84;5012529;28;20108;-56
2023/01/23 00:40:15;;;;;;;0.15;0.10;;;;;;;13.13;26.69;101914.72;5010274;28;20029;-56
2023/01/23 00:42:41;;;;;;;0.17;0.13;;;;;;;13.15;26.99;101903.75;4993105;28;20030;-59
2023/01/23 00:45:08;;;;;;;0.65;0.30;;;;;;;13.19;27.78;101910.41;5009320;28;20018;-59
2023/01/23 00:47:34;;;;;;;0.63;0.30;;;;;;;13.15;27.88;101919.91;5011990;28;20064;-59
2023/01/23 00:50:00;;;;;;;2.10;0.22;;;;;;;13.08;27.87;101919.03;5011694;28;20058;-59
2023/01/23 00:52:28;;;;;;;0.32;0.20;;;;;;;12.98;28.34;101913.16;5012077;28;20038;-58
2023/01/23 00:54:54;;;;;;;1.17;0.25;;;;;;;12.88;27.88;101922.41;5012048;28;20037;-58
2023/01/23 00:57:20;;;;;;;0.28;0.22;;;;;;;13.04;28.14;101923.94;5012219;28;20026;-59
2023/01/23 00:59:46;;;;;;;0.28;0.15;;;;;;;12.88;29.42;101921.56;5010907;28;20034;-59
2023/01/23 01:02:12;;;;;;;1.05;0.40;;;;;;;12.80;30.36;101937.84;5011118;28;20025;-55
2023/01/23 01:04:39;;;;;;;0.90;0.32;;;;;;;12.71;30.91;101931.75;5012071;28;20480;-54
2023/01/23 01:07:05;;;;;;;0.47;0.38;;;;;;;12.62;31.61;101941.81;5012226;28;20044;-54
2023/01/23 01:09:31;;;;;;;0.45;0.32;;;;;;;12.59;31.56;101939.50;5011703;28;20037;-54
2023/01/23 01:11:57;;;;;;;1.00;0.45;;;;;;;12.50;31.93;101937.16;5011980;28;20122;-55
2023/01/23 01:14:24;;;;;;;0.63;0.30;;;;;;;12.38;32.08;101929.59;5011670;28;20042;-55
2023/01/23 01:16:50;;;;;;;0.73;0.32;;;;;;;12.45;32.35;101936.91;5011827;28;20084;-54
2023/01/23 01:19:18;;;;;;;5.68;0.50;;;;;;;12.39;32.23;101930.44;5018292;23;20036;-53
2023/01/23 01:21:44;;;;;;;0.20;0.20;;;;;;;12.24;33.00;101925.13;4991782;28;20564;-55
2023/01/23 01:24:10;;;;;;;1.25;0.40;;;;;;;12.26;32.66;101931.13;4992128;28;20027;-54
2023/01/23 01:26:36;;;;;;;1.08;0.28;;;;;;;12.25;32.01;101929.44;4992517;28;20026;-54
2023/01/23 01:29:03;;;;;;;1.17;0.40;;;;;;;12.27;32.10;101926.56;4992104;28;20551;-53
2023/01/23 01:31:30;;;;;;;0.30;0.20;;;;;;;12.12;32.33;101923.97;4986625;28;20038;-54
2023/01/23 01:33:56;;;;;;;0.22;0.20;;;;;;;12.08;33.41;101928.03;5008420;28;20074;-54
2023/01/23 01:36:24;;;;;;;1.13;0.30;;;;;;;12.04;33.20;101924.88;5008388;28;20033;-54
2023/01/23 01:38:50;;;;;;;0.80;0.45;;;;;;;11.96;33.72;101922.31;5002284;28;20101;-54
2023/01/23 01:41:17;;;;;;;0.88;0.30;;;;;;;12.04;33.50;101916.00;5006776;28;20041;-55
2023/01/23 01:43:43;;;;;;;2.17;0.47;;;;;;;11.99;32.93;101918.41;4992174;28;20063;-53
2023/01/23 01:46:25;;;;;;;0.30;0.30;;;;;;;11.95;32.79;101922.53;4991956;28;20109;-54
2023/01/23 01:49:00;;;;;;;1.90;0.38;;;;;;;11.87;32.43;101918.91;4996865;28;20025;-55
2023/01/23 01:51:50;;;;;;;1.10;0.47;;;;;;;11.92;32.24;101918.34;5007427;28;20101;-56
2023/01/23 01:54:19;;;;;;;0.50;0.20;;;;;;;11.99;30.55;101915.75;5010329;28;20060;-54
2023/01/23 01:56:54;;;;;;;0.65;0.30;;;;;;;11.89;31.54;101914.22;5013937;28;20112;-54
2023/01/23 01:59:23;;;;;;;0.73;0.40;;;;;;;11.98;31.24;101922.13;4988820;28;20504;-55
2023/01/23 02:01:55;;;;;;;0.65;0.28;;;;;;;11.90;31.67;101920.41;4995949;28;20026;-54
2023/01/23 02:04:22;;;;;;;0.50;0.25;;;;;;;11.99;30.71;101913.06;4995793;28;20522;-54
2023/01/23 02:07:16;;;;;;;1.75;0.28;;;;;;;11.96;31.45;101924.19;4928701;29;20179;-55
2023/01/23 02:09:44;;;;;;;2.15;0.63;;;;;;;11.83;32.03;101909.59;4962260;28;20102;-55
2023/01/23 02:12:10;;;;;;;0.55;0.38;;;;;;;11.73;31.28;101908.19;4971545;28;20101;-54
2023/01/23 02:14:37;;;;;;;1.17;0.60;;;;;;;11.74;30.15;101909.84;4974002;28;20038;-55
2023/01/23 02:17:04;;;;;;;0.57;0.20;;;;;;;11.84;29.50;101913.09;4954640;28;20689;-55
2023/01/23 02:19:58;;;;;;;0.32;0.20;;;;;;;11.83;30.21;101914.97;4954169;29;20123;-54
2023/01/23 02:22:54;;;;;;;0.70;0.25;;;;;;;11.77;33.16;101915.69;4954656;29;20067;-56
2023/01/23 02:25:32;;;;;;;2.28;0.30;;;;;;;11.51;34.18;101928.75;4953664;28;20047;-54
2023/01/23 02:28:00;;;;;;;0.35;0.20;;;;;;;11.74;32.00;101932.13;4954405;29;20027;-55
2023/01/23 02:30:26;;;;;;;0.90;0.20;;;;;;;11.72;32.86;101931.50;4954481;29;20513;-54
2023/01/23 02:32:53;;;;;;;0.52;0.20;;;;;;;11.74;33.14;101934.81;4946419;29;20075;-55
2023/01/23 02:35:26;;;;;;;0.75;0.30;;;;;;;11.62;33.62;101936.31;4953939;28;20051;-55
2023/01/23 02:37:57;;;;;;;0.75;0.30;;;;;;;11.54;32.99;101921.13;4953867;29;20044;-55
2023/01/23 02:40:38;;;;;;;1.40;0.50;;;;;;;11.46;32.80;101921.25;4954295;29;20043;-56
2023/01/23 02:43:08;;;;;;;1.10;0.50;;;;;;;11.60;30.92;101930.28;4954196;29;20035;-56
2023/01/23 02:45:35;;;;;;;0.68;0.32;;;;;;;11.61;29.87;101919.41;4973443;28;20406;-56
2023/01/23 02:48:04;;;;;;;0.73;0.60;;;;;;;11.56;30.32;101934.38;4993612;28;20872;-55
2023/01/23 02:50:31;;;;;;;0.85;0.40;;;;;;;11.56;29.84;101920.97;4994734;28;20611;-54
2023/01/23 02:52:57;;;;;;;0.38;0.32;;;;;;;11.73;28.91;101921.59;4994811;28;20066;-56
2023/01/23 02:55:33;;;;;;;0.60;0.20;;;;;;;11.71;28.77;101921.78;4995267;28;20038;-56
2023/01/23 03:00:45;;;;;;;1.43;0.40;;;;;;;11.75;28.23;101916.88;4994446;28;20447;-55
2023/01/23 03:03:12;;;;;;;1.48;0.40;;;;;;;11.74;28.54;101909.84;4993850;28;20069;-56
2023/01/23 03:05:38;;;;;;;1.20;0.30;;;;;;;11.75;27.03;101906.97;5003076;28;20030;-56
2023/01/23 03:08:05;;;;;;;0.60;0.40;;;;;;;11.74;27.30;101910.69;4995112;28;20060;-56
2023/01/23 03:10:31;;;;;;;0.68;0.30;;;;;;;11.70;28.00;101909.38;4994592;28;20030;-56
2023/01/23 03:13:02;;;;;;;1.10;0.25;;;;;;;11.71;27.69;101920.94;4999057;28;20116;-55
2023/01/23 03:15:29;;;;;;;0.40;0.40;;;;;;;11.64;28.31;101913.66;5005231;28;20065;-56
2023/01/23 03:17:56;;;;;;;1.13;0.40;;;;;;;11.63;28.65;101906.63;5014020;28;20053;-56
2023/01/23 03:20:22;;;;;;;2.20;0.40;;;;;;;11.55;29.74;101912.09;5005902;28;20069;-55
2023/01/23 03:22:49;;;;;;;0.55;0.30;;;;;;;11.43;30.22;101904.69;4994087;28;20550;-56
2023/01/23 03:25:16;;;;;;;1.67;1.05;;;;;;;11.37;30.39;101906.25;4994046;28;20030;-55
2023/01/23 03:27:42;;;;;;;1.15;0.40;;;;;;;11.37;30.05;101901.72;4994160;28;20034;-56
2023/01/23 03:30:12;;;;;;;1.17;0.40;;;;;;;11.52;28.76;101906.28;4994372;28;20026;-57
2023/01/23 03:32:39;;;;;;;0.93;0.40;;;;;;;11.50;27.66;101892.22;4996019;28;20599;-56
2023/01/23 03:35:09;;;;;;;0.93;0.60;;;;;;;11.54;27.49;101888.97;5013609;28;20030;-56
2023/01/23 03:37:36;;;;;;;0.43;0.28;;;;;;;11.63;26.51;101889.72;5009744;28;20029;-57
2023/01/23 03:42:47;;;;;;;0.57;0.38;;;;;;;11.55;26.94;101879.94;4994300;28;20053;-56
2023/01/23 03:45:13;;;;;;;0.45;0.30;;;;;;;11.58;26.88;101884.91;5011495;28;20052;-56
2023/01/23 03:47:40;;;;;;;0.65;0.32;;;;;;;11.53;26.92;101883.78;5011113;28;20021;-56
2023/01/23 03:50:07;;;;;;;1.15;0.50;;;;;;;11.50;26.50;101893.06;5013397;28;20110;-55
2023/01/23 03:52:33;;;;;;;0.38;0.38;;;;;;;11.39;27.21;101892.69;4995325;28;20504;-55
2023/01/23 03:54:59;;;;;;;1.90;0.60;;;;;;;11.29;27.67;101893.81;4994142;28;20053;-54
2023/01/23 03:57:26;;;;;;;0.88;0.40;;;;;;;11.36;28.28;101885.84;5002163;28;20052;-55
2023/01/23 03:59:52;;;;;;;1.27;0.40;;;;;;;11.39;29.45;101879.28;4993600;28;20117;-55
2023/01/23 04:02:18;;;;;;;0.85;0.40;;;;;;;11.24;30.73;101882.78;4993079;28;20033;-55
2023/01/23 04:04:44;;;;;;;0.63;0.30;;;;;;;11.21;30.95;101880.47;4993602;28;20031;-56
2023/01/23 04:07:11;;;;;;;1.77;0.50;;;;;;;11.08;30.80;101889.16;5004739;28;20534;-56
2023/01/23 04:09:37;;;;;;;1.15;0.45;;;;;;;11.03;30.63;101891.56;5013270;28;20073;-56
2023/01/23 04:12:03;;;;;;;0.88;0.30;;;;;;;11.13;30.05;101893.16;5000753;28;20121;-56
2023/01/23 04:14:34;;;;;;;1.00;0.30;;;;;;;11.18;30.00;101901.47;4993036;28;20480;-55
2023/01/23 04:17:00;;;;;;;0.43;0.43;;;;;;;11.05;30.80;101904.78;4999836;28;20419;-56
2023/01/23 04:19:27;;;;;;;0.85;0.40;;;;;;;10.90;31.03;101912.78;5012377;28;20101;-56
2023/01/23 04:21:53;;;;;;;0.43;0.32;;;;;;;10.95;31.09;101906.91;4994625;28;20053;-57
2023/01/23 04:24:20;;;;;;;1.40;0.50;;;;;;;11.13;31.51;101904.69;4993291;28;20476;-55
2023/01/23 04:26:46;;;;;;;0.70;0.45;;;;;;;11.00;32.53;101901.81;5007495;28;20033;-56
2023/01/23 04:29:12;;;;;;;2.45;0.50;;;;;;;10.96;33.09;101900.53;5012644;28;20021;-56
2023/01/23 04:31:39;;;;;;;0.80;0.30;;;;;;;10.79;34.26;101905.19;4989822;28;20027;-56
2023/01/23 04:34:05;;;;;;;0.40;0.40;;;;;;;10.61;32.83;101889.47;4997118;28;20033;-56
2023/01/23 04:36:31;;;;;;;0.60;0.30;;;;;;;10.73;31.27;101888.00;5012510;28;20392;-56
2023/01/23 04:38:58;;;;;;;0.40;0.30;;;;;;;10.82;30.84;101886.91;5005672;28;20037;-55
2023/01/23 04:41:27;;;;;;;0.85;0.40;;;;;;;10.93;29.97;101882.13;5007139;28;20034;-56
2023/01/23 04:43:53;;;;;;;0.57;0.40;;;;;;;11.00;30.17;101878.53;5007236;28;20473;-56
2023/01/23 04:46:19;;;;;;;0.20;0.20;;;;;;;11.03;30.41;101886.19;4992912;28;20072;-55
2023/01/23 04:48:46;;;;;;;0.75;0.30;;;;;;;10.98;31.16;101885.91;4993446;28;20022;-55
2023/01/23 04:51:12;;;;;;;2.97;0.30;;;;;;;11.03;31.25;101878.16;4973289;28;20023;-56
2023/01/23 04:53:38;;;;;;;0.80;0.40;;;;;;;11.23;29.75;101870.41;4992115;28;20061;-55
2023/01/23 04:56:05;;;;;;;0.70;0.40;;;;;;;11.15;29.99;101870.50;4992740;28;20038;-55
2023/01/23 04:58:31;;;;;;;3.00;0.40;;;;;;;11.21;28.62;101869.75;4992043;28;20108;-55
2023/01/23 05:01:03;;;;;;;0.68;0.30;;;;;;;11.36;27.66;101873.28;4992675;28;20034;-55
2023/01/23 05:03:29;;;;;;;0.93;0.40;;;;;;;11.56;27.45;101886.13;4994751;28;20503;-56
2023/01/23 05:05:55;;;;;;;2.60;0.40;;;;;;;11.59;27.80;101880.38;4992329;28;20489;-54
2023/01/23 05:08:21;;;;;;;1.20;0.57;;;;;;;11.55;28.03;101884.47;5006300;28;20034;-55
2023/01/23 05:10:47;;;;;;;0.90;0.38;;;;;;;11.54;28.45;101905.06;5011993;28;20026;-55
2023/01/23 05:13:14;;;;;;;0.25;0.25;;;;;;;11.74;26.52;101907.16;5008896;28;20050;-55
2023/01/23 05:15:40;;;;;;;0.25;0.22;;;;;;;11.75;26.75;101912.34;5011919;28;20388;-56
2023/01/23 05:18:06;;;;;;;0.85;0.40;;;;;;;11.60;26.87;101907.00;5000124;28;20065;-55
2023/01/23 05:20:32;;;;;;;1.88;0.40;;;;;;;11.73;27.25;101914.38;4996062;28;20069;-55
2023/01/23 05:22:58;;;;;;;0.65;0.30;;;;;;;11.66;27.04;101913.47;5000946;28;20065;-55
2023/01/23 05:25:27;;;;;;;0.68;0.20;;;;;;;11.68;26.75;101916.78;4992626;28;20475;-56
2023/01/23 05:27:53;;;;;;;0.38;0.25;;;;;;;11.71;27.14;101908.34;4991071;28;20027;-55
2023/01/23 05:30:21;;;;;;;1.35;0.50;;;;;;;11.65;27.16;101909.09;4993251;28;20049;-56
2023/01/23 05:32:48;;;;;;;1.27;0.70;;;;;;;11.50;27.83;101911.00;4972476;28;20097;-56
2023/01/23 05:35:15;;;;;;;1.27;0.50;;;;;;;11.52;28.55;101909.78;4979361;28;20036;-55
2023/01/23 05:37:41;;;;;;;5.85;0.70;;;;;;;11.48;28.45;101915.69;5011339;28;20473;-55
2023/01/23 05:40:10;;;;;;;0.93;0.50;;;;;;;11.45;28.56;101918.75;4999371;28;20034;-55
2023/01/23 05:42:36;;;;;;;1.85;0.30;;;;;;;11.54;28.30;101898.84;5006314;28;20072;-55
2023/01/23 05:45:03;;;;;;;0.30;0.30;;;;;;;11.52;28.72;101898.22;4982674;28;20070;-55
2023/01/23 05:47:29;;;;;;;2.83;0.43;;;;;;;11.51;28.27;101904.63;4990093;28;20532;-56
2023/01/23 05:49:55;;;;;;;0.70;0.50;;;;;;;11.41;28.84;101899.53;4991895;28;20046;-56
2023/01/23 05:52:21;;;;;;;0.70;0.45;;;;;;;11.31;29.04;101894.44;4992111;28;20022;-55
2023/01/23 05:54:49;;;;;;;0.50;0.35;;;;;;;11.42;29.13;101893.13;5002983;28;20361;-55
2023/01/23 05:57:16;;;;;;;2.40;0.45;;;;;;;11.44;29.49;101893.81;4998957;28;20109;-56
2023/01/23 05:59:42;;;;;;;3.35;0.20;;;;;;;11.37;29.83;101896.38;4998543;28;20697;-55
2023/01/23 06:02:08;;;;;;;2.75;0.40;;;;;;;11.36;30.28;101886.66;5011424;28;20026;-55
2023/01/23 06:04:37;;;;;;;1.27;0.40;;;;;;;11.24;30.51;101881.97;5003971;28;20034;-56
2023/01/23 06:07:03;;;;;;;1.17;0.40;;;;;;;11.24;30.40;101876.59;4992102;28;20485;-55
2023/01/23 06:09:30;;;;;;;0.57;0.30;;;;;;;11.25;30.76;101884.47;4984506;28;20023;-56
2023/01/23 06:11:56;;;;;;;3.00;0.40;;;;;;;11.20;31.27;101878.00;4987574;28;20370;-55
2023/01/23 06:14:22;;;;;;;0.95;0.40;;;;;;;11.23;31.38;101883.81;4986129;28;20030;-55
2023/01/23 06:16:48;;;;;;;0.70;0.40;;;;;;;11.16;31.43;101872.19;4991748;28;20027;-56
2023/01/23 06:19:15;;;;;;;2.83;0.22;;;;;;;11.15;31.59;101873.19;5013368;23;20054;-55
2023/01/23 06:21:41;;;;;;;0.63;0.30;;;;;;;11.01;32.26;101879.38;5011308;28;20057;-55
2023/01/23 06:24:07;;;;;;;0.20;0.20;;;;;;;10.88;33.11;101882.66;5011107;28;20495;-55
2023/01/23 06:26:33;;;;;;;0.38;0.28;;;;;;;10.87;33.86;101874.81;5011212;28;20390;-54
2023/01/23 06:29:00;;;;;;;1.30;0.40;;;;;;;10.80;34.32;101882.75;5010746;28;20492;-55
2023/01/23 06:31:26;;;;;;;0.95;0.40;;;;;;;10.87;35.01;101875.66;5004128;28;20034;-54
2023/01/23 06:33:52;;;;;;;1.65;0.60;;;;;;;10.75;35.58;101875.25;4991435;28;20370;-54
2023/01/23 06:36:18;;;;;;;1.15;0.40;;;;;;;10.65;36.13;101873.84;4997901;28;20028;-55
2023/01/23 06:38:45;;;;;;;0.80;0.40;;;;;;;10.63;36.36;101879.41;5013237;28;20056;-54
2023/01/23 06:41:11;;;;;;;1.67;0.50;;;;;;;10.60;36.41;101877.06;5014324;28;20054;-54
2023/01/23 06:43:37;;;;;;;3.80;0.52;;;;;;;10.55;36.96;101876.81;5012798;28;20042;-54
2023/01/23 06:46:03;;;;;;;0.73;0.40;;;;;;;10.48;36.88;101878.50;4997029;28;20041;-54
2023/01/23 06:48:30;;;;;;;0.77;0.40;;;;;;;10.46;36.68;101877.88;5014038;28;20085;-55
2023/01/23 06:50:59;;;;;;;1.10;0.43;;;;;;;10.41;36.57;101872.22;5014605;28;20092;-56
2023/01/23 06:53:26;;;;;;;2.00;0.60;;;;;;;10.44;35.88;101872.72;4996639;28;20497;-55
2023/01/23 06:55:52;;;;;;;1.17;0.50;;;;;;;10.45;35.78;101874.38;5014140;28;20449;-55
2023/01/23 06:58:19;;;;;;;1.05;0.40;;;;;;;10.38;35.23;101870.72;5004259;28;20102;-55
2023/01/23 07:00:45;;;;;;;1.70;0.60;;;;;;;10.44;34.96;101885.25;4994985;28;20034;-55
2023/01/23 07:03:14;;;;;;;0.57;0.40;;;;;;;10.38;35.50;101870.72;5003152;28;20036;-55
2023/01/23 07:05:42;;;;;;;0.57;0.20;;;;;;;10.35;34.64;101875.63;5013447;28;20033;-55
2023/01/23 07:08:09;;;;;;;2.65;0.35;;;;;;;10.41;33.98;101874.91;5013538;28;20042;-55
2023/01/23 07:10:39;;;;;;;0.50;0.30;;;;;;;10.42;34.30;101863.19;5014474;28;20030;-54
2023/01/23 07:13:07;;;;;;;0.63;0.40;;;;;;;10.32;34.72;101855.38;5014328;28;20096;-55
2023/01/23 07:15:33;;;;;;;0.50;0.20;;;;;;;10.34;34.92;101853.38;5013950;28;20116;-55
2023/01/23 07:18:01;;;;;;;0.70;0.40;;;;;;;10.29;35.04;101855.75;5008246;28;20499;-54
2023/01/23 07:20:27;;;;;;;0.43;0.30;;;;;;;10.20;35.34;101868.31;4994392;28;20404;-54
2023/01/23 07:22:55;;;;;;;1.08;0.52;;;;;;;10.14;35.48;101861.00;5011405;28;20117;-55
2023/01/23 07:25:23;;;;;;;0.45;0.20;;;;;;;10.15;35.00;101870.69;5013192;28;20029;-56
2023/01/23 07:27:49;;;;;;;0.88;0.30;;;;;;;10.14;35.58;101857.50;5013225;28;20456;-54
2023/01/23 07:30:16;;;;;;;0.57;0.40;;;;;;;10.03;35.38;101858.75;5011332;28;20049;-54
2023/01/23 07:32:43;;;;;;;1.40;0.60;;;;;;;10.03;35.52;101856.06;5013315;28;20026;-54
2023/01/23 07:35:09;;;;;;;0.20;0.20;;;;;;;10.05;35.46;101846.06;5013331;28;20471;-54
2023/01/23 07:37:36;;;;;;;1.10;0.57;;;;;;;10.00;35.66;101861.78;5013076;28;20539;-53
2023/01/23 07:40:02;;;;;;;0.65;0.30;;;;;;;10.02;35.96;101849.91;5012822;28;20049;-55
2023/01/23 07:42:28;;;;;;;1.45;0.40;;;;;;;10.05;35.93;101840.69;5013529;28;20026;-54
2023/01/23 07:44:55;;;;;;;1.13;0.20;;;;;;;9.96;35.41;101839.91;5013150;28;20044;-55
2023/01/23 07:47:21;;;;;;;1.02;0.50;;;;;;;9.88;35.80;101844.47;5013496;28;20085;-54
2023/01/23 07:49:47;;;;;;;0.60;0.30;;;;;;;9.99;34.49;101852.09;5012616;28;20395;-54
2023/01/23 07:52:13;;;;;;;0.55;0.28;;;;;;;10.02;33.88;101843.72;5013531;28;20022;-54
2023/01/23 07:54:40;;;;;;;1.67;0.30;;;;;;;10.19;32.66;101841.75;5013325;28;20028;-55
2023/01/23 07:57:06;;;;;;;0.98;0.20;;;;;;;10.28;32.19;101846.06;5012956;28;20112;-55
2023/01/23 07:59:32;;;;;;;0.60;0.20;;;;;;;10.27;32.11;101836.34;5013211;28;20056;-55
2023/01/23 08:01:58;;;;;;;0.20;0.20;;;;;;;10.39;32.07;101844.81;5013191;28;20457;-55
2023/01/23 08:04:25;;;;;;;0.40;0.20;;;;;;;10.38;31.83;101856.50;5013148;28;20599;-55
2023/01/23 08:06:51;;;;;;;1.10;0.30;;;;;;;10.39;31.75;101851.00;5013114;28;20033;-56
2023/01/23 08:09:18;;;;;;;0.88;0.40;;;;;;;10.39;31.57;101855.53;5012582;28;20034;-54
2023/01/23 08:11:44;;;;;;;0.43;0.20;;;;;;;10.43;32.24;101872.88;5012750;28;20048;-54
2023/01/23 08:14:11;;;;;;;0.30;0.10;;;;;;;10.35;32.56;101875.63;5013069;28;20029;-55
2023/01/23 08:16:37;;;;;;;1.10;0.30;;;;;;;10.48;32.04;101870.47;5012781;28;20245;-54
2023/01/23 08:19:07;;;;;;;1.65;0.55;;;;;;;10.36;32.37;101872.75;5012716;28;20551;-55
2023/01/23 08:21:33;;;;;;;0.40;0.20;;;;;;;10.38;32.69;101870.72;4995314;28;20388;-55
2023/01/23 08:24:03;;;;;;;0.77;0.40;;;;;;;10.42;32.62;101880.06;5012572;28;20026;-55
2023/01/23 08:26:30;;;;;;;0.82;0.30;;;;;;;10.43;33.08;101878.22;5012756;28;20050;-54
2023/01/23 08:28:56;;;;;;;1.63;0.22;;;;;;;10.38;33.51;101880.59;5010779;28;20025;-55
2023/01/23 08:31:22;;;;;;;0.82;0.10;;;;;;;10.41;33.62;101877.56;5009143;28;20021;-55
2023/01/23 08:33:48;;;;;;;1.40;0.30;;;;;;;10.41;34.05;101880.25;5011946;28;20025;-55
2023/01/23 08:36:15;;;;;;;0.25;0.20;;;;;;;10.45;33.44;101877.03;5012167;28;20057;-55
2023/01/23 08:38:41;;;;;;;0.55;0.20;;;;;;;10.37;33.45;101866.38;5012106;28;20038;-55
2023/01/23 08:41:10;;;;;;;0.47;0.30;;;;;;;10.43;33.00;101865.66;5012118;28;20030;-54
2023/01/23 08:43:37;;;;;;;0.50;0.30;;;;;;;10.32;33.54;101861.56;5012086;28;20050;-55
2023/01/23 08:46:04;;;;;;;1.48;0.40;;;;;;;10.38;32.99;101861.88;5012031;28;20038;-55
2023/01/23 08:48:30;;;;;;;1.23;0.13;;;;;;;10.31;32.66;101859.91;5012015;28;20468;-54
2023/01/23 08:51:02;;;;;;;0.60;0.20;;;;;;;10.19;33.33;101864.00;5011741;28;20041;-54
2023/01/23 08:53:29;;;;;;;0.65;0.20;;;;;;;10.37;32.91;101850.31;5012364;28;20076;-54
2023/01/23 08:56:03;;;;;;;0.40;0.20;;;;;;;10.37;33.04;101847.66;5011180;28;20029;-54
2023/01/23 08:58:29;;;;;;;0.77;0.40;;;;;;;10.38;32.97;101837.78;5012245;28;20029;-55
2023/01/23 09:00:56;;;;;;;0.50;0.20;;;;;;;10.41;33.12;101857.00;5011191;28;20409;-55
2023/01/23 09:03:22;;;;;;;0.98;0.15;;;;;;;10.27;33.20;101845.25;5011943;28;20026;-54
2023/01/23 09:05:48;;;;;;;0.35;0.20;;;;;;;10.36;33.35;101845.16;5011325;28;20058;-54
2023/01/23 09:08:15;;;;;;;2.17;0.30;;;;;;;10.39;33.12;101836.78;5011891;28;20056;-55
2023/01/23 09:10:41;;;;;;;0.40;0.30;;;;;;;10.38;33.28;101833.25;5026520;28;20048;-55
2023/01/23 09:13:07;;;;;;;0.75;0.20;;;;;;;10.38;33.70;101837.78;5031561;28;20033;-55
2023/01/23 09:15:34;;;;;;;0.57;0.30;;;;;;;10.30;33.66;101834.16;4998957;28;20161;-54
2023/01/23 09:18:00;;;;;;;0.35;0.15;;;;;;;10.39;33.08;101837.63;5011395;28;20042;-55
2023/01/23 09:20:27;;;;;;;0.70;0.30;;;;;;;10.40;32.95;101847.31;5005080;28;20033;-55
2023/01/23 09:22:54;;;;;;;0.25;0.20;;;;;;;10.38;32.28;101841.28;5011763;28;20127;-54
2023/01/23 09:25:21;;;;;;;0.43;0.20;;;;;;;10.32;32.85;101845.50;5011223;28;20029;-53
2023/01/23 09:27:47;;;;;;;0.10;0.10;;;;;;;10.24;32.95;101842.91;5011435;28;20037;-55
2023/01/23 09:30:14;;;;;;;0.57;0.20;;;;;;;10.35;32.90;101841.66;5008057;28;20034;-55
2023/01/23 09:32:40;;;;;;;1.10;0.30;;;;;;;10.33;32.83;101841.03;5011518;28;20034;-54
2023/01/23 09:35:07;;;;;;;0.20;0.20;;;;;;;10.29;33.56;101845.06;5010939;28;20026;-55
2023/01/23 09:37:58;;;;;;;0.80;0.25;;;;;;;10.41;33.35;101842.78;4993670;28;20387;-55
2023/01/23 09:40:23;;;;;;;0.75;0.30;;;;;;;10.28;33.58;101851.44;5011450;28;20483;-54
2023/01/23 09:42:52;;;;;;;0.10;0.10;;;;;;;10.29;33.73;101845.06;5011522;28;20109;-54
2023/01/23 09:45:21;;;;;;;0.90;0.20;;;;;;;10.26;33.96;101840.88;5010472;28;20172;-55
2023/01/23 09:47:56;;;;;;;1.40;0.30;;;;;;;10.17;34.64;101838.44;4991661;28;20030;-55
2023/01/23 09:50:32;;;;;;;1.45;0.30;;;;;;;10.22;34.58;101844.09;5008167;28;20455;-55
2023/01/23 09:53:05;;;;;;;1.63;0.20;;;;;;;10.36;33.81;101854.03;5011372;28;20164;-54
2023/01/23 09:55:55;;;;;;;1.00;0.30;;;;;;;10.15;34.18;101849.28;5009621;28;20025;-54
2023/01/23 09:58:42;;;;;;;0.95;0.35;;;;;;;10.20;33.80;101840.75;5010623;28;20037;-55
2023/01/23 10:01:12;;;;;;;0.73;0.30;;;;;;;10.21;32.63;101835.19;5011811;28;20036;-54
2023/01/23 10:03:39;;;;;;;0.98;0.30;;;;;;;10.17;32.75;101841.94;5009418;28;20030;-55
2023/01/23 10:06:24;;;;;;;0.98;0.35;;;;;;;10.28;32.95;101840.72;5011587;28;20037;-55
2023/01/23 10:09:12;;;;;;;0.40;0.30;;;;;;;10.20;34.07;101832.72;4995380;28;20037;-54
2023/01/23 10:11:53;;;;;;;0.65;0.20;;;;;;;10.13;34.31;101837.13;4999335;28;20026;-55
2023/01/23 10:14:44;;;;;;;0.77;0.13;;;;;;;10.15;34.97;101827.88;5014485;28;20065;-54
2023/01/23 10:17:18;;;;;;;0.95;0.30;;;;;;;10.14;34.71;101834.25;5014684;28;20028;-56
2023/01/23 10:20:13;;;;;;;0.30;0.30;;;;;;;10.15;34.45;101830.56;5014690;28;20096;-55
2023/01/23 10:23:06;;;;;;;0.95;0.47;;;;;;;10.15;34.34;101822.53;5014463;28;21589;-55
2023/01/23 10:25:37;;;;;;;0.43;0.35;;;;;;;10.16;33.72;101840.28;5015239;28;20049;-55
2023/01/23 10:28:24;;;;;;;0.30;0.20;;;;;;;10.19;34.06;101826.53;5010578;28;20084;-55
2023/01/23 10:30:57;;;;;;;1.90;0.32;;;;;;;10.18;34.26;101827.56;4997589;28;20022;-54
2023/01/23 10:33:42;;;;;;;0.45;0.28;;;;;;;10.25;33.17;101828.50;5003537;28;20065;-54
2023/01/23 10:36:37;;;;;;;0.25;0.20;;;;;;;10.27;34.64;101836.34;5014556;28;20040;-54
2023/01/23 10:39:12;;;;;;;0.15;0.15;;;;;;;10.17;34.80;101841.94;4993770;28;20068;-54
2023/01/23 10:41:38;;;;;;;0.82;0.30;;;;;;;10.13;33.79;101840.63;5013133;28;20048;-54
2023/01/23 10:44:19;;;;;;;0.35;0.30;;;;;;;10.23;34.17;101845.75;5014414;28;20033;-54
2023/01/23 10:46:52;;;;;;;1.20;0.43;;;;;;;10.22;33.94;101842.25;5014182;28;20030;-54
2023/01/23 10:49:36;;;;;;;0.65;0.40;;;;;;;10.21;34.71;101847.75;5014841;28;20026;-54
2023/01/23 10:52:04;;;;;;;2.22;0.40;;;;;;;10.20;35.12;101852.28;5013773;28;20030;-54
2023/01/23 10:54:44;;;;;;;1.33;0.50;;;;;;;10.19;34.92;101861.31;5014544;28;20488;-54
2023/01/23 10:57:13;;;;;;;0.40;0.20;;;;;;;10.18;34.45;101848.13;5014106;28;20030;-54
2023/01/23 11:00:03;;;;;;;0.30;0.20;;;;;;;10.16;34.33;101850.97;5014140;28;20029;-54
2023/01/23 11:02:34;;;;;;;1.38;0.40;;;;;;;10.16;33.40;101855.47;5013097;28;20400;-55
2023/01/23 11:05:01;;;;;;;0.47;0.30;;;;;;;10.08;34.05;101858.22;5014232;28;20388;-55
2023/01/23 11:07:36;;;;;;;0.45;0.20;;;;;;;10.20;33.54;101862.16;5013971;28;20455;-55
2023/01/23 11:10:19;;;;;;;0.82;0.40;;;;;;;10.17;33.92;101862.50;5014082;28;20388;-54
2023/01/23 11:12:53;;;;;;;0.22;0.20;;;;;;;10.11;34.06;101857.88;5014334;28;20042;-55
2023/01/23 11:15:24;;;;;;;1.50;0.28;;;;;;;10.17;33.94;101865.19;5013572;28;20069;-54
2023/01/23 11:17:52;;;;;;;0.75;0.40;;;;;;;10.11;34.18;101864.06;5015533;28;20038;-54
2023/01/23 11:20:37;;;;;;;0.80;0.50;;;;;;;10.13;33.95;101853.19;5018856;28;20061;-55
2023/01/23 11:23:16;;;;;;;1.20;0.43;;;;;;;10.07;34.06;101838.66;5013940;28;20030;-54
2023/01/23 11:25:45;;;;;;;0.98;0.28;;;;;;;10.14;33.38;101847.63;5012761;28;20134;-54
2023/01/23 11:28:29;;;;;;;0.40;0.20;;;;;;;10.00;33.64;101849.25;5009277;28;20109;-54
2023/01/23 11:31:15;;;;;;;0.80;0.30;;;;;;;10.19;33.29;101855.13;5006367;28;20038;-55
2023/01/23 11:34:00;;;;;;;0.70;0.30;;;;;;;10.13;34.01;101855.84;5013580;28;20057;-55
2023/01/23 11:36:31;;;;;;;0.95;0.30;;;;;;;10.13;33.24;101856.69;5013126;28;20117;-55
2023/01/23 11:39:06;;;;;;;0.30;0.17;;;;;;;10.21;32.63;101872.66;5012873;28;20092;-54